Bruly Saint Martin, Louisiana
Current Conditions -  °F | °C
As of 4:35 AM on Sunday 23 Nov 2014 (Local Time) from KL38 Reporting Station
Overcast Overcast  
Wind Chill: 63°   Ceiling: 300
Heat Index: 63°   Visibility: 10mi
Dew Point: 63°   Wind: 3mph
Humidity: 100%   Direction: 100°E
Pressure: 29.74"   Gusts: NA
Location:  30.0336°N, 91.0413°W
Report Text: KL38 231035Z AUTO 10003KT 10SM OVC003 17/17 A2974 RMK AO2 T01720172
Loading
Personal Weather Stations






























Interactive Weather Map New forecast layout! Learn more

10-Day Weather Forecast

Advertisements
Track Severe Weather on mobile